Time;durP1;ratioP1;P1;durP2;ratioP2;P2;SDS_P1;SDS_P2;PMS_P1;PMS_P2;Temp;Humidity;BMP_temperature;BMP_pressure;BME280_temperature;BME280_humidity;BME280_pressure;Samples;Min_cycle;Max_cycle;Signal;HPM_P1;HPM_P2
2022/09/23 00:00:45;;;;;;;9.27;5.30;;;;;;;1.79;100.00;93301.81;2123242;27;20031;-70
2022/09/23 00:01:46;;;;;;;9.07;5.47;;;;;;;1.82;100.00;93293.22;2123036;27;20080;-71
2022/09/23 00:02:48;;;;;;;9.32;5.45;;;;;;;1.72;100.00;93293.81;2121638;27;20477;-70
2022/09/23 00:03:49;;;;;;;13.95;5.35;;;;;;;1.77;100.00;93291.63;2122086;27;20031;-70
2022/09/23 00:04:50;;;;;;;13.90;5.43;;;;;;;1.78;100.00;93289.75;2122939;27;20481;-70
2022/09/23 00:06:02;;;;;;;10.32;5.05;;;;;;;1.73;100.00;93292.69;2123211;27;20031;-69
2022/09/23 00:07:04;;;;;;;10.57;5.47;;;;;;;1.65;100.00;93283.94;2119546;27;20034;-70
2022/09/23 00:08:07;;;;;;;12.88;5.82;;;;;;;1.69;100.00;93287.38;2122715;27;20463;-69
2022/09/23 00:09:08;;;;;;;8.50;4.85;;;;;;;1.69;100.00;93287.38;2111742;27;20141;-69
2022/09/23 00:10:09;;;;;;;9.85;5.40;;;;;;;1.75;100.00;93285.94;2108244;28;20032;-69
2022/09/23 00:11:22;;;;;;;9.95;5.03;;;;;;;1.80;100.00;93286.75;2113952;28;20114;-69
2022/09/23 00:12:23;;;;;;;11.63;4.90;;;;;;;1.77;100.00;93286.38;2123062;27;20027;-71
2022/09/23 00:13:24;;;;;;;13.88;5.70;;;;;;;1.79;100.00;93283.38;2122401;27;20046;-70
2022/09/23 00:14:26;;;;;;;11.20;5.13;;;;;;;1.85;100.00;93284.59;2122965;27;20437;-69
2022/09/23 00:15:30;;;;;;;12.23;5.57;;;;;;;1.88;100.00;93283.88;2122995;27;20121;-71
2022/09/23 00:16:33;;;;;;;12.52;5.38;;;;;;;1.83;100.00;93291.31;2118586;27;20180;-71
2022/09/23 00:17:34;;;;;;;15.20;5.40;;;;;;;1.75;100.00;93293.09;2122915;27;20035;-70
2022/09/23 00:18:35;;;;;;;16.77;5.90;;;;;;;1.72;100.00;93286.69;2122259;27;20110;-70
2022/09/23 00:19:39;;;;;;;12.13;5.45;;;;;;;1.77;100.00;93288.25;2122996;27;20058;-69
2022/09/23 00:20:40;;;;;;;10.63;5.30;;;;;;;1.77;100.00;93289.00;2122701;27;20064;-70
2022/09/23 00:21:41;;;;;;;12.27;5.57;;;;;;;1.71;100.00;93290.44;2122997;27;20771;-71
2022/09/23 00:22:43;;;;;;;11.57;5.82;;;;;;;1.70;100.00;93293.41;2122860;27;20041;-68
2022/09/23 00:23:44;;;;;;;11.32;5.82;;;;;;;1.70;100.00;93286.25;2122476;27;20365;-71
2022/09/23 00:24:45;;;;;;;13.35;5.10;;;;;;;1.75;100.00;93287.81;2123023;27;20027;-71
2022/09/23 00:25:55;;;;;;;14.88;5.82;;;;;;;1.66;100.00;93287.31;2122954;27;20027;-70
2022/09/23 00:26:58;;;;;;;10.93;5.57;;;;;;;1.72;100.00;93286.69;2122708;27;20428;-69
2022/09/23 00:28:07;;;;;;;14.38;6.60;;;;;;;1.69;100.00;93281.34;2117834;27;20033;-70
2022/09/23 00:29:14;;;;;;;12.95;5.28;;;;;;;1.63;100.00;93285.41;2121626;27;20513;-70
2022/09/23 00:30:24;;;;;;;16.30;6.07;;;;;;;1.59;100.00;93281.97;2122532;27;20042;-69
2022/09/23 00:31:32;;;;;;;13.35;5.15;;;;;;;1.68;100.00;93283.22;2122307;27;20080;-70
2022/09/23 00:32:39;;;;;;;14.60;5.60;;;;;;;1.63;100.00;93285.41;2119034;27;20119;-70
2022/09/23 00:33:48;;;;;;;10.52;5.20;;;;;;;1.58;100.00;93285.69;2122505;27;20019;-70
2022/09/23 00:34:54;;;;;;;10.05;5.28;;;;;;;1.57;100.00;93281.53;2121298;27;20053;-70
2022/09/23 00:36:04;;;;;;;14.13;5.60;;;;;;;1.59;100.00;93281.97;2113030;28;20100;-70
2022/09/23 00:37:05;;;;;;;11.60;5.38;;;;;;;1.55;100.00;93275.88;2111232;27;20080;-71
2022/09/23 00:38:07;;;;;;;17.88;5.95;;;;;;;1.56;100.00;93280.03;2122355;27;20083;-69
2022/09/23 00:39:10;;;;;;;10.68;5.72;;;;;;;1.55;100.00;93276.63;2121915;27;20042;-70
2022/09/23 00:40:11;;;;;;;12.38;5.20;;;;;;;1.60;100.00;93278.22;2120361;27;20062;-70
2022/09/23 00:41:17;;;;;;;14.40;5.80;;;;;;;1.63;100.00;93273.00;2112895;28;20430;-69
2022/09/23 00:42:28;;;;;;;13.82;5.50;;;;;;;1.52;100.00;93275.47;2113686;28;20869;-69
2022/09/23 00:43:40;;;;;;;12.05;5.63;;;;;;;1.48;100.00;93271.25;2118266;27;20019;-69
2022/09/23 00:45:01;;;;;;;12.85;5.68;;;;;;;1.39;100.00;93274.13;2122273;27;20034;-69
2022/09/23 00:46:10;;;;;;;17.50;5.43;;;;;;;1.48;100.00;93271.25;2118652;27;20041;-69
2022/09/23 00:47:20;;;;;;;12.77;5.25;;;;;;;1.34;100.00;93277.06;2121891;27;20031;-69
2022/09/23 00:48:22;;;;;;;15.93;6.22;;;;;;;1.42;100.00;93273.44;2122216;27;20384;-70
2022/09/23 00:49:32;;;;;;;13.52;5.72;;;;;;;1.46;100.00;93274.25;2112538;28;20028;-69
2022/09/23 00:50:41;;;;;;;14.15;6.13;;;;;;;1.45;100.00;93266.72;2110763;27;20909;-69
2022/09/23 00:51:57;;;;;;;12.93;5.13;;;;;;;1.42;100.00;93267.41;2121877;27;20034;-70
2022/09/23 00:53:05;;;;;;;9.85;5.28;;;;;;;1.44;100.00;93273.06;2121982;27;20436;-70
2022/09/23 00:54:07;;;;;;;10.07;5.18;;;;;;;1.52;100.00;93266.81;2119301;27;20057;-69
2022/09/23 00:55:17;;;;;;;11.70;5.20;;;;;;;1.42;100.00;93270.81;2122085;27;20038;-69
2022/09/23 00:56:22;;;;;;;8.90;5.13;;;;;;;1.43;100.00;93261.78;2121643;27;20031;-70
2022/09/23 00:57:26;;;;;;;12.60;5.95;;;;;;;1.45;100.00;93267.47;2121560;27;20668;-71
2022/09/23 00:58:37;;;;;;;9.27;4.75;;;;;;;1.39;100.00;93262.84;2121934;27;20067;-69
2022/09/23 00:59:45;;;;;;;9.68;5.30;;;;;;;1.37;100.00;93259.81;2119663;27;20764;-70
2022/09/23 01:00:53;;;;;;;16.13;6.00;;;;;;;1.35;100.00;93254.88;2121366;27;20023;-71
2022/09/23 01:01:56;;;;;;;15.18;6.30;;;;;;;1.35;100.00;93260.16;2122650;27;20035;-70
2022/09/23 01:02:58;;;;;;;11.48;5.28;;;;;;;1.41;100.00;93258.00;2113663;27;20735;-70
2022/09/23 01:03:59;;;;;;;15.77;5.30;;;;;;;1.39;100.00;93258.34;2109105;28;20613;-69
2022/09/23 01:05:02;;;;;;;12.18;5.55;;;;;;;1.43;100.00;93255.75;2122126;27;20031;-70
2022/09/23 01:06:04;;;;;;;13.23;5.22;;;;;;;1.39;100.00;93260.97;2122328;27;20049;-69
2022/09/23 01:07:05;;;;;;;9.95;4.82;;;;;;;1.42;100.00;93254.25;2121699;27;20388;-70
2022/09/23 01:08:08;;;;;;;15.45;5.88;;;;;;;1.45;100.00;93256.19;2122619;27;20032;-69
2022/09/23 01:09:09;;;;;;;15.00;5.40;;;;;;;1.37;100.00;93257.19;2122481;27;20418;-70
2022/09/23 01:10:13;;;;;;;14.63;5.78;;;;;;;1.37;100.00;93255.31;2122104;27;20031;-69
2022/09/23 01:11:34;;;;;;;10.88;5.88;;;;;;;1.34;100.00;93256.00;2122348;27;20027;-69
2022/09/23 01:12:48;;;;;;;12.55;5.28;;;;;;;1.26;100.00;93252.50;2113299;28;20066;-69
2022/09/23 01:14:12;;;;;;;11.50;5.07;;;;;;;1.31;100.00;93251.44;2117883;27;20043;-69
2022/09/23 01:15:27;;;;;;;11.32;5.25;;;;;;;1.26;100.00;93247.22;2120301;27;20039;-69
2022/09/23 01:16:35;;;;;;;12.68;5.20;;;;;;;1.30;100.00;93247.28;2121893;27;20023;-70
2022/09/23 01:17:46;;;;;;;15.82;5.93;;;;;;;1.33;100.00;93248.47;2120429;27;20035;-69
2022/09/23 01:18:59;;;;;;;14.18;5.88;;;;;;;1.23;100.00;93247.22;2122530;27;20376;-70
2022/09/23 01:20:21;;;;;;;12.48;5.22;;;;;;;1.26;100.00;93251.75;2109477;28;20030;-69
2022/09/23 01:22:00;;;;;;;12.30;5.40;;;;;;;1.19;100.00;93246.38;2116598;27;20023;-71
2022/09/23 01:23:24;;;;;;;12.33;5.57;;;;;;;1.17;100.00;93253.88;2091584;28;20057;-69
2022/09/23 01:24:28;;;;;;;15.20;5.45;;;;;;;1.23;100.00;93249.84;2087500;28;20448;-69
2022/09/23 01:26:10;;;;;;;15.00;5.38;;;;;;;1.23;100.00;93240.06;2116231;27;20472;-69
2022/09/23 01:27:18;;;;;;;14.63;5.90;;;;;;;1.22;100.00;93245.66;2083508;28;20094;-69
2022/09/23 01:28:41;;;;;;;11.00;5.80;;;;;;;1.21;100.00;93244.91;2085595;28;20028;-69
2022/09/23 01:30:20;;;;;;;16.67;5.97;;;;;;;1.17;100.00;93243.34;2085276;28;20064;-69
2022/09/23 01:31:44;;;;;;;13.43;5.43;;;;;;;1.11;100.00;93239.50;2055035;28;20032;-69
2022/09/23 01:33:15;;;;;;;13.15;5.57;;;;;;;1.11;100.00;93244.75;2067173;28;20609;-69
2022/09/23 01:34:48;;;;;;;11.35;5.03;;;;;;;1.11;100.00;93248.13;2119171;27;20860;-69
2022/09/23 01:36:17;;;;;;;11.88;5.47;;;;;;;1.13;100.00;93245.16;2115977;27;20439;-69
2022/09/23 01:37:31;;;;;;;15.18;5.93;;;;;;;1.20;100.00;93243.38;2120832;27;20043;-71
2022/09/23 01:38:39;;;;;;;12.57;6.28;;;;;;;1.13;100.00;93245.16;2118611;27;20023;-69
2022/09/23 01:40:01;;;;;;;13.10;6.25;;;;;;;1.13;100.00;93242.50;2122376;27;20030;-69
2022/09/23 01:41:13;;;;;;;18.10;6.03;;;;;;;1.20;100.00;93240.00;2118275;27;20114;-69
2022/09/23 01:42:16;;;;;;;10.88;5.47;;;;;;;1.22;100.00;93235.88;2122232;27;20529;-69
2022/09/23 01:43:39;;;;;;;12.95;5.75;;;;;;;1.16;100.00;93237.31;2121423;27;20680;-69
2022/09/23 01:45:16;;;;;;;11.07;4.95;;;;;;;1.18;100.00;93240.34;2093154;28;20032;-69
2022/09/23 01:46:26;;;;;;;13.05;5.35;;;;;;;1.18;100.00;93237.69;2084223;28;20044;-69
2022/09/23 01:47:34;;;;;;;15.32;5.35;;;;;;;1.10;100.00;93237.94;2114991;27;20385;-69
2022/09/23 01:48:43;;;;;;;13.40;5.68;;;;;;;1.13;100.00;93231.97;2118517;27;20051;-69
2022/09/23 01:50:55;;;;;;;15.48;5.55;;;;;;;1.16;100.00;93226.78;2122377;27;20023;-71
2022/09/23 01:51:34;;;;;;;10.80;5.18;;;;;;;1.10;100.00;93235.31;2118092;27;20059;-69
2022/09/23 01:52:43;;;;;;;15.32;5.80;;;;;;;1.13;100.00;93229.34;2122036;27;20019;-71
2022/09/23 01:53:52;;;;;;;21.27;6.38;;;;;;;1.16;100.00;93226.03;2120871;27;20046;-69
2022/09/23 01:55:07;;;;;;;11.52;5.32;;;;;;;1.14;100.00;93223.75;2122261;27;20033;-69
2022/09/23 01:56:15;;;;;;;13.57;5.32;;;;;;;1.11;100.00;93228.97;2119194;27;20088;-69
2022/09/23 01:57:30;;;;;;;12.15;5.65;;;;;;;1.05;100.00;93222.44;2122134;27;20031;-70
2022/09/23 01:58:44;;;;;;;11.38;5.40;;;;;;;1.11;100.00;93232.34;2118628;27;20050;-70
2022/09/23 02:00:23;;;;;;;11.30;5.22;;;;;;;1.04;100.00;93219.06;2121848;27;20039;-70
2022/09/23 02:01:36;;;;;;;10.77;5.30;;;;;;;1.05;100.00;93222.44;2086882;28;20037;-70
2022/09/23 02:02:48;;;;;;;27.08;7.10;;;;;;;1.08;100.00;93227.03;2089139;28;20045;-70
2022/09/23 02:04:03;;;;;;;8.82;4.90;;;;;;;1.03;100.00;93232.59;2086903;28;20032;-70
2022/09/23 02:05:13;;;;;;;8.32;4.55;;;;;;;1.07;100.00;93228.91;2084060;28;20040;-70
2022/09/23 02:06:44;;;;;;;10.63;4.97;;;;;;;1.12;100.00;93225.22;2086960;28;20031;-69
2022/09/23 02:08:00;;;;;;;7.20;5.20;;;;;;;1.14;100.00;93225.59;2117854;27;20031;-70
2022/09/23 02:09:07;;;;;;;10.25;4.78;;;;;;;1.13;100.00;93224.09;2117965;27;20030;-70
2022/09/23 02:10:13;;;;;;;13.65;5.40;;;;;;;1.07;100.00;93226.28;2122253;27;20373;-70
2022/09/23 02:11:17;;;;;;;6.88;5.28;;;;;;;1.05;100.00;93225.84;2122055;27;20066;-70
2022/09/23 02:12:20;;;;;;;6.82;4.93;;;;;;;1.00;100.00;93224.28;2121702;27;20122;-70
2022/09/23 02:13:28;;;;;;;8.25;4.88;;;;;;;0.99;100.00;93217.50;2121797;27;20435;-69
2022/09/23 02:15:40;;;;;;;;;;;;;;;1.02;100.00;93216.03;2138317;27;21079;-71
2022/09/23 02:16:50;;;;;;;6.78;4.30;;;;;;;1.04;100.00;93213.81;2133889;27;19963;-71
2022/09/23 02:18:00;;;;;;;6.65;4.68;;;;;;;1.04;100.00;93224.31;2133642;27;20042;-72
2022/09/23 02:19:18;;;;;;;7.93;4.95;;;;;;;1.12;100.00;93217.31;2133496;27;20501;-71
2022/09/23 02:20:33;;;;;;;8.98;5.30;;;;;;;1.04;100.00;93215.69;2136644;27;20055;-72
2022/09/23 02:21:39;;;;;;;6.38;4.75;;;;;;;1.06;100.00;93210.84;2134002;27;20026;-71
2022/09/23 02:23:07;;;;;;;4.90;4.40;;;;;;;1.07;100.00;93213.09;2135625;27;20154;-71
2022/09/23 02:24:13;;;;;;;9.82;5.32;;;;;;;0.96;100.00;93212.16;2131162;27;20027;-72
2022/09/23 02:25:16;;;;;;;7.72;4.90;;;;;;;0.98;100.00;93207.31;2130841;27;20031;-71
2022/09/23 02:26:37;;;;;;;9.23;5.13;;;;;;;0.96;100.00;93215.56;2133719;27;20130;-73
2022/09/23 02:28:11;;;;;;;6.78;4.57;;;;;;;0.90;100.00;93216.22;2133506;27;20029;-71
2022/09/23 02:29:41;;;;;;;5.63;4.43;;;;;;;0.85;100.00;93212.00;2129400;27;20468;-71
2022/09/23 02:30:51;;;;;;;9.40;4.85;;;;;;;0.89;100.00;93214.72;2133841;27;20683;-69
2022/09/23 02:32:02;;;;;;;9.85;4.93;;;;;;;0.82;100.00;93210.06;2133390;27;20031;-72
2022/09/23 02:33:16;;;;;;;6.47;4.63;;;;;;;0.86;100.00;93210.91;2133300;27;20034;-71
2022/09/23 02:34:30;;;;;;;7.32;5.07;;;;;;;0.81;100.00;93202.53;2133597;27;20041;-69
2022/09/23 02:35:40;;;;;;;6.40;4.60;;;;;;;0.84;100.00;93205.22;2130725;27;20029;-71
2022/09/23 02:37:08;;;;;;;10.10;5.32;;;;;;;0.81;100.00;93205.19;2133575;27;20032;-71
2022/09/23 02:38:15;;;;;;;6.53;4.57;;;;;;;0.77;100.00;93213.00;2133130;27;20034;-71
2022/09/23 02:39:20;;;;;;;6.65;4.43;;;;;;;0.79;100.00;93210.00;2133265;27;20147;-69
2022/09/23 02:40:32;;;;;;;8.80;4.88;;;;;;;0.78;100.00;93214.50;2132819;27;20472;-69
2022/09/23 02:41:38;;;;;;;7.03;4.95;;;;;;;0.80;100.00;93217.56;2130091;27;20141;-71
2022/09/23 02:42:48;;;;;;;6.00;4.80;;;;;;;0.72;100.00;93214.06;2133645;27;20054;-71
2022/09/23 02:43:58;;;;;;;;;;;;;;;0.78;100.00;93209.25;2134078;27;20410;-71
2022/09/23 02:44:59;;;;;;;6.55;4.38;;;;;;;0.77;100.00;93213.00;2132940;27;20367;-69
2022/09/23 02:46:03;;;;;;;8.48;4.57;;;;;;;0.85;100.00;93209.38;2133012;27;20443;-68
2022/09/23 02:47:04;;;;;;;5.60;4.25;;;;;;;0.73;100.00;93212.94;2133341;27;20042;-69
2022/09/23 02:48:17;;;;;;;7.70;5.18;;;;;;;0.70;100.00;93212.88;2133681;27;20038;-69
2022/09/23 02:49:22;;;;;;;9.30;4.60;;;;;;;0.67;100.00;93216.97;2124118;27;20083;-71
2022/09/23 02:50:23;;;;;;;6.43;4.50;;;;;;;0.68;100.00;93210.59;2124619;27;20023;-68
2022/09/23 02:51:25;;;;;;;9.45;4.90;;;;;;;0.70;100.00;93207.63;2129235;27;20106;-69
2022/09/23 02:52:26;;;;;;;8.40;5.45;;;;;;;0.72;100.00;93200.16;2127870;27;20087;-71
2022/09/23 02:53:29;;;;;;;6.18;4.70;;;;;;;0.73;100.00;93196.41;2126241;27;20034;-71
2022/09/23 02:54:32;;;;;;;7.18;5.20;;;;;;;0.75;100.00;93202.84;2133439;27;20045;-69
2022/09/23 02:55:33;;;;;;;8.38;5.03;;;;;;;0.74;100.00;93200.53;2132852;27;20015;-69
2022/09/23 02:56:34;;;;;;;11.45;5.35;;;;;;;0.71;100.00;93198.63;2132574;27;20029;-71
2022/09/23 02:57:35;;;;;;;12.52;5.20;;;;;;;0.72;100.00;93192.25;2132765;27;20030;-71
2022/09/23 02:58:36;;;;;;;6.35;4.88;;;;;;;0.71;100.00;93194.13;2129901;27;20022;-69
2022/09/23 02:59:37;;;;;;;8.10;5.60;;;;;;;0.71;100.00;93199.38;2133123;27;20031;-69
2022/09/23 03:01:04;;;;;;;6.90;4.63;;;;;;;0.61;100.00;93194.69;2133249;27;20163;-71
2022/09/23 03:02:05;;;;;;;7.15;5.15;;;;;;;0.63;100.00;93197.00;2126729;27;20422;-71
2022/09/23 03:03:18;;;;;;;7.93;4.88;;;;;;;0.66;100.00;93194.44;2124277;27;20035;-71
2022/09/23 03:05:02;;;;;;;6.35;4.60;;;;;;;0.62;100.00;93200.75;2133209;27;20038;-71
2022/09/23 03:06:26;;;;;;;10.35;5.20;;;;;;;0.69;100.00;93195.56;2109334;28;20032;-71
2022/09/23 03:07:48;;;;;;;10.98;4.80;;;;;;;0.62;100.00;93196.22;2132880;27;20029;-71
2022/09/23 03:09:16;;;;;;;7.90;4.50;;;;;;;0.73;100.00;93188.50;2136424;27;20062;-71
2022/09/23 03:10:28;;;;;;;5.75;4.65;;;;;;;0.72;100.00;93195.66;2130035;27;20027;-71
2022/09/23 03:11:31;;;;;;;6.97;4.57;;;;;;;0.73;100.00;93191.13;2129894;27;20038;-71
2022/09/23 03:12:38;;;;;;;8.02;4.85;;;;;;;0.70;100.00;93197.88;2133368;27;20038;-71
2022/09/23 03:14:15;;;;;;;6.40;4.60;;;;;;;0.69;100.00;93191.06;2135943;27;20086;-71
2022/09/23 03:15:25;;;;;;;6.22;4.70;;;;;;;0.63;100.00;93191.72;2132974;27;20060;-69
2022/09/23 03:16:35;;;;;;;9.40;5.28;;;;;;;0.57;100.00;93190.47;2135470;27;20073;-69
2022/09/23 03:17:52;;;;;;;20.88;5.07;;;;;;;0.57;100.00;93193.13;2132711;27;20027;-71
2022/09/23 03:19:33;;;;;;;6.30;4.75;;;;;;;0.66;100.00;93189.16;2132985;27;20135;-71
2022/09/23 03:20:48;;;;;;;5.10;4.22;;;;;;;0.64;100.00;93183.47;2133192;27;20030;-71
2022/09/23 03:22:02;;;;;;;6.05;4.35;;;;;;;0.60;100.00;93187.16;2132617;27;20039;-71
2022/09/23 03:23:08;;;;;;;9.77;5.00;;;;;;;0.60;100.00;93185.28;2133349;27;20027;-71
2022/09/23 03:24:13;;;;;;;6.93;4.97;;;;;;;0.61;100.00;93178.16;2132773;27;20039;-69
2022/09/23 03:25:19;;;;;;;5.72;4.65;;;;;;;0.46;100.00;93170.03;2132927;27;20075;-71
2022/09/23 03:26:26;;;;;;;8.02;5.07;;;;;;;0.57;100.00;93178.13;2131333;27;20025;-68
2022/09/23 03:27:29;;;;;;;7.47;4.80;;;;;;;0.57;100.00;93182.59;2130776;27;20446;-71
2022/09/23 03:28:33;;;;;;;9.27;5.05;;;;;;;0.60;100.00;93179.28;2127467;27;20030;-71
2022/09/23 03:29:35;;;;;;;6.30;4.90;;;;;;;0.59;100.00;93180.38;2127457;27;20042;-69
2022/09/23 03:30:37;;;;;;;8.63;5.15;;;;;;;0.62;100.00;93172.56;2127118;27;20057;-69
2022/09/23 03:31:40;;;;;;;8.90;5.70;;;;;;;0.62;100.00;93177.81;2127236;27;20031;-71
2022/09/23 03:32:44;;;;;;;9.60;5.38;;;;;;;0.64;100.00;93175.59;2129024;27;20035;-71
2022/09/23 03:33:58;;;;;;;7.18;4.95;;;;;;;0.65;100.00;93178.97;2123253;27;20119;-68
2022/09/23 03:35:01;;;;;;;7.53;4.95;;;;;;;0.65;100.00;93178.97;2127388;27;20027;-71
2022/09/23 03:37:49;;;;;;;7.32;5.43;;;;;;;0.57;100.00;93182.59;2130384;27;20432;-71
2022/09/23 03:38:57;;;;;;;7.72;4.50;;;;;;;0.57;100.00;93179.97;2127493;27;20102;-71
2022/09/23 03:40:07;;;;;;;7.22;5.05;;;;;;;0.66;100.00;93177.84;2127338;27;20025;-70
2022/09/23 03:41:15;;;;;;;7.75;5.10;;;;;;;0.72;100.00;93174.59;2127453;27;20035;-70
2022/09/23 03:42:21;;;;;;;8.55;4.88;;;;;;;0.64;100.00;93182.72;2127590;27;20049;-68
2022/09/23 03:43:22;;;;;;;8.13;5.10;;;;;;;0.66;100.00;93176.00;2123860;27;20058;-69
2022/09/23 03:44:23;;;;;;;6.10;4.95;;;;;;;0.69;100.00;93174.53;2127575;27;20730;-71
2022/09/23 03:45:31;;;;;;;6.35;4.90;;;;;;;0.65;100.00;93179.72;2123356;27;20055;-72
2022/09/23 03:46:34;;;;;;;6.13;4.97;;;;;;;0.65;100.00;93174.47;2123212;27;20039;-70
2022/09/23 03:47:35;;;;;;;7.63;4.85;;;;;;;0.66;100.00;93180.50;2127319;27;20050;-69
2022/09/23 03:48:36;;;;;;;7.95;5.10;;;;;;;0.61;100.00;93175.53;2127036;27;20031;-69
2022/09/23 03:49:38;;;;;;;10.43;5.30;;;;;;;0.55;100.00;93169.81;2127054;27;20019;-71
2022/09/23 03:50:40;;;;;;;7.10;4.82;;;;;;;0.50;100.00;93172.72;2127292;27;20034;-71
2022/09/23 03:51:41;;;;;;;5.50;4.70;;;;;;;0.57;100.00;93174.72;2129856;27;20061;-71
2022/09/23 03:52:42;;;;;;;8.27;5.13;;;;;;;0.56;100.00;93171.31;2128145;27;20027;-71
2022/09/23 03:53:43;;;;;;;10.52;5.32;;;;;;;0.62;100.00;93174.44;2129534;27;20019;-71
2022/09/23 03:54:44;;;;;;;9.70;4.93;;;;;;;0.46;100.00;93177.94;2126660;27;20134;-70
2022/09/23 03:55:46;;;;;;;6.80;4.70;;;;;;;0.46;100.00;93180.56;2127007;27;20718;-72
2022/09/23 03:56:47;;;;;;;6.28;4.75;;;;;;;0.39;100.00;93174.41;2127347;27;21128;-72
2022/09/23 03:57:48;;;;;;;9.10;5.05;;;;;;;0.41;100.00;93177.47;2126195;27;20104;-73
2022/09/23 03:58:49;;;;;;;6.43;4.53;;;;;;;0.48;100.00;93172.31;2117901;27;20457;-70
2022/09/23 03:59:51;;;;;;;7.00;4.70;;;;;;;0.44;100.00;93174.91;2117955;27;20453;-72
2022/09/23 04:00:53;;;;;;;7.65;5.63;;;;;;;0.43;100.00;93173.34;2126843;27;20087;-73
2022/09/23 04:01:54;;;;;;;11.43;4.70;;;;;;;0.40;100.00;93171.44;2127816;27;20521;-71
2022/09/23 04:02:56;;;;;;;7.45;5.00;;;;;;;0.35;100.00;93182.25;2127206;27;20681;-71
2022/09/23 04:03:57;;;;;;;8.30;5.13;;;;;;;0.37;100.00;93187.91;2127148;27;20353;-68
2022/09/23 04:04:57;;;;;;;6.28;4.72;;;;;;;0.45;100.00;93173.03;2127173;27;20064;-68
2022/09/23 04:05:58;;;;;;;6.03;4.45;;;;;;;0.49;100.00;93174.59;2126799;27;20034;-70
2022/09/23 04:07:00;;;;;;;10.00;4.60;;;;;;;0.41;100.00;93180.09;2126781;27;20054;-71
2022/09/23 04:08:01;;;;;;;6.63;5.10;;;;;;;0.47;100.00;93176.06;2126487;27;20035;-71
2022/09/23 04:09:02;;;;;;;6.05;4.70;;;;;;;0.60;100.00;93179.28;2130127;27;20050;-71
2022/09/23 04:10:04;;;;;;;7.15;4.70;;;;;;;0.54;100.00;93175.44;2131514;27;20069;-71
2022/09/23 04:11:05;;;;;;;6.10;4.65;;;;;;;0.54;100.00;93176.19;2127142;27;20058;-70
2022/09/23 04:12:07;;;;;;;6.97;4.90;;;;;;;0.48;100.00;93169.69;2126494;27;20532;-69
2022/09/23 04:13:08;;;;;;;5.38;4.75;;;;;;;0.42;100.00;93171.09;2126156;27;20031;-71
2022/09/23 04:14:10;;;;;;;9.63;4.63;;;;;;;0.41;100.00;93170.34;2116926;27;20028;-68
2022/09/23 04:15:11;;;;;;;7.93;4.82;;;;;;;0.41;100.00;93175.59;2117494;27;20043;-69
2022/09/23 04:16:12;;;;;;;8.35;4.82;;;;;;;0.50;100.00;93172.72;2117979;27;20031;-68
2022/09/23 04:17:14;;;;;;;5.45;4.38;;;;;;;0.46;100.00;93172.66;2119771;27;20042;-70
2022/09/23 04:18:15;;;;;;;6.50;5.07;;;;;;;0.37;100.00;93180.03;2117442;27;20035;-72
2022/09/23 04:19:16;;;;;;;5.57;4.50;;;;;;;0.43;100.00;93170.72;2127881;27;20497;-70
2022/09/23 04:20:18;;;;;;;5.68;4.68;;;;;;;0.45;100.00;93171.16;2125381;27;20027;-71
2022/09/23 04:21:20;;;;;;;6.82;4.55;;;;;;;0.40;100.00;93171.44;2126360;27;20481;-69
2022/09/23 04:22:22;;;;;;;8.07;4.75;;;;;;;0.44;100.00;93168.84;2127035;27;20038;-71
2022/09/23 04:23:24;;;;;;;7.75;4.90;;;;;;;0.43;100.00;93169.97;2117898;27;20019;-71
2022/09/23 04:24:25;;;;;;;9.00;4.72;;;;;;;0.40;100.00;93168.81;2115773;27;20690;-71
2022/09/23 04:25:26;;;;;;;5.60;4.63;;;;;;;0.35;100.00;93165.69;2126346;27;20421;-68
2022/09/23 04:26:27;;;;;;;4.50;4.10;;;;;;;0.39;100.00;93166.53;2127035;27;20075;-70
2022/09/23 04:27:28;;;;;;;5.65;4.32;;;;;;;0.47;100.00;93168.16;2126789;27;20038;-73
2022/09/23 04:28:29;;;;;;;6.85;4.50;;;;;;;0.47;100.00;93163.66;2122183;27;20031;-71
2022/09/23 04:29:29;;;;;;;8.95;4.85;;;;;;;0.54;100.00;93167.53;2126151;27;20042;-72
2022/09/23 04:30:30;;;;;;;7.57;4.72;;;;;;;0.54;100.00;93165.66;2126655;27;20027;-71
2022/09/23 04:31:32;;;;;;;6.28;4.40;;;;;;;0.49;100.00;93169.34;2126710;27;20034;-71
2022/09/23 04:32:33;;;;;;;8.27;4.15;;;;;;;0.44;100.00;93155.72;2126929;27;20064;-71
2022/09/23 04:33:34;;;;;;;5.10;4.60;;;;;;;0.50;100.00;93162.22;2126775;27;20101;-68
2022/09/23 04:34:35;;;;;;;5.38;4.75;;;;;;;0.49;100.00;93171.22;2116783;27;20579;-70
2022/09/23 04:35:38;;;;;;;5.72;4.32;;;;;;;0.54;100.00;93168.28;2114095;27;20035;-70
2022/09/23 04:36:40;;;;;;;5.93;4.70;;;;;;;0.49;100.00;93165.97;2117307;27;20366;-70
2022/09/23 04:37:41;;;;;;;4.63;4.18;;;;;;;0.56;100.00;93165.31;2117786;27;20027;-72
2022/09/23 04:38:44;;;;;;;8.60;4.00;;;;;;;0.60;100.00;93163.50;2125801;27;20027;-68
2022/09/23 04:39:44;;;;;;;4.95;4.47;;;;;;;0.64;100.00;93167.69;2125480;27;20061;-72
2022/09/23 04:40:45;;;;;;;7.65;4.13;;;;;;;0.62;100.00;93169.94;2124681;27;20031;-73
2022/09/23 04:41:49;;;;;;;9.57;4.80;;;;;;;0.60;100.00;93166.88;2124400;27;20062;-70
2022/09/23 04:42:50;;;;;;;5.97;4.40;;;;;;;0.67;100.00;93161.75;2126550;27;20015;-68
2022/09/23 04:43:51;;;;;;;6.80;4.55;;;;;;;0.67;100.00;93166.25;2126665;27;20035;-72
2022/09/23 04:44:52;;;;;;;4.55;4.10;;;;;;;0.62;100.00;93175.19;2125537;27;20038;-72
2022/09/23 04:46:01;;;;;;;6.65;4.70;;;;;;;0.79;100.00;93166.06;2118773;27;20022;-72
2022/09/23 04:47:03;;;;;;;7.40;4.30;;;;;;;0.76;100.00;93169.41;2120015;27;20030;-71
2022/09/23 04:48:04;;;;;;;9.60;4.55;;;;;;;0.79;100.00;93179.22;2124010;27;20019;-70
2022/09/23 04:49:05;;;;;;;7.03;4.38;;;;;;;0.81;100.00;93174.34;2116346;27;20066;-71
2022/09/23 04:50:07;;;;;;;10.95;5.25;;;;;;;0.83;100.00;93172.13;2110973;27;20027;-71
2022/09/23 04:51:13;;;;;;;7.57;4.65;;;;;;;0.83;100.00;93166.84;2120484;27;20062;-71
2022/09/23 04:52:14;;;;;;;7.95;4.60;;;;;;;0.94;100.00;93169.66;2123547;27;20038;-72
2022/09/23 04:53:15;;;;;;;6.38;4.70;;;;;;;0.93;100.00;93170.78;2126635;27;20042;-76
2022/09/23 04:54:16;;;;;;;5.20;4.55;;;;;;;0.88;100.00;93171.06;2124621;27;20027;-72
2022/09/23 04:55:17;;;;;;;5.43;4.80;;;;;;;0.89;100.00;93169.97;2124222;27;20027;-69
2022/09/23 04:56:19;;;;;;;6.97;5.03;;;;;;;1.02;100.00;93175.81;2124537;27;20046;-72
2022/09/23 04:57:20;;;;;;;5.57;4.55;;;;;;;1.06;100.00;93174.75;2123073;27;20026;-71
2022/09/23 04:58:21;;;;;;;6.60;4.50;;;;;;;1.02;100.00;93171.31;2121859;27;20085;-72
2022/09/23 04:59:23;;;;;;;6.13;4.20;;;;;;;1.00;100.00;93169.00;2119870;27;20027;-71
2022/09/23 05:00:27;;;;;;;8.07;4.55;;;;;;;0.97;100.00;93172.34;2123458;27;20026;-71
2022/09/23 05:01:30;;;;;;;5.03;4.20;;;;;;;1.04;100.00;93178.84;2122254;27;20046;-72
2022/09/23 05:02:31;;;;;;;9.27;4.15;;;;;;;1.10;100.00;93169.50;2125774;27;20119;-71
2022/09/23 05:03:34;;;;;;;4.90;4.40;;;;;;;1.15;100.00;93164.72;2123141;27;20847;-72
2022/09/23 05:04:36;;;;;;;8.75;4.65;;;;;;;1.02;100.00;93168.66;2114797;27;20117;-70
2022/09/23 05:05:37;;;;;;;5.07;4.40;;;;;;;1.07;100.00;93173.63;2115187;27;20438;-73
2022/09/23 05:06:38;;;;;;;5.30;4.35;;;;;;;1.06;100.00;93172.13;2120808;27;20035;-69
2022/09/23 05:07:41;;;;;;;11.35;4.55;;;;;;;1.06;100.00;93172.13;2124256;27;20098;-71
2022/09/23 05:08:50;;;;;;;5.50;4.30;;;;;;;1.19;100.00;93170.81;2124406;27;20138;-72
2022/09/23 05:09:51;;;;;;;4.63;4.00;;;;;;;1.34;100.00;93171.00;2128086;27;20050;-74
2022/09/23 05:10:58;;;;;;;8.52;5.07;;;;;;;1.35;100.00;93168.00;2125519;27;20610;-70
2022/09/23 05:11:59;;;;;;;16.15;6.28;;;;;;;1.19;100.00;93170.03;2127195;27;20448;-71
2022/09/23 05:13:00;;;;;;;5.00;4.50;;;;;;;1.13;100.00;93172.19;2124079;27;20038;-69
2022/09/23 05:14:01;;;;;;;6.55;4.90;;;;;;;1.15;100.00;93166.59;2127631;27;20023;-70
2022/09/23 05:15:02;;;;;;;6.90;4.70;;;;;;;1.23;100.00;93168.97;2123846;27;20051;-72
2022/09/23 05:16:06;;;;;;;5.93;4.28;;;;;;;1.24;100.00;93178.38;2124408;27;20031;-73
2022/09/23 05:17:07;;;;;;;4.90;4.38;;;;;;;1.23;100.00;93174.25;2113151;27;20122;-70
2022/09/23 05:18:08;;;;;;;8.13;4.88;;;;;;;1.13;100.00;93166.94;2115175;27;20031;-71
2022/09/23 05:19:12;;;;;;;9.05;3.97;;;;;;;1.16;100.00;93166.22;2120889;27;20031;-71
2022/09/23 05:20:13;;;;;;;5.55;4.53;;;;;;;1.15;100.00;93172.63;2123965;27;20491;-71